Monte — V2FS2 — position and weather

sailwx.info

Track history (hours):
 
Tides and Currents Weather Stations Pressure Air Temp Water Temp Dewpoint Dewpoint Depression Visibility Wind Speed Wind Dir Waves Ship Positions

Monte

Last reported at 2015-May-29 09:33 UTC. Time now 2015-May-29 10:19 UTC.
Position N 38°18' W 009°44'.

Length 104 m; draft 6.6 m.

Type: Cargo ship. MMSI: 305777000.

Date/timePositionNaut miles runAvg speedWind from/ knotsBaromVisibWave heightAir tempDewpointWater temp
2015-May-29 09:33N 38°18' W 009°44'8 7.7
2015-May-29 08:33N 38°11' W 009°42'8 8.1
2015-May-29 07:33N 38°03' W 009°39'9 8.4
2015-May-29 06:32N 37°54' W 009°37'9 8.7
2015-May-29 05:32N 37°46' W 009°34'9 8.7
2015-May-29 04:33N 37°38' W 009°32'9 8.8
2015-May-29 03:33N 37°29' W 009°29'8 8.5
2015-May-29 02:34N 37°21' W 009°27'9 8.6
2015-May-29 01:33N 37°12' W 009°24'9 9.0
2015-May-29 00:34N 37°04' W 009°22'9 9.1
2015-May-28 23:33N 36°55' W 009°19'9 9.0
2015-May-28 22:33N 36°48' W 009°12'9 8.9
2015-May-28 21:33N 36°43' W 009°03'9 9.1
2015-May-28 20:34N 36°40' W 008°52'9 9.1
2015-May-28 19:32N 36°38' W 008°41'162 9.4
2015-May-28 02:22N 36°01' W 005°25'6 7.9
2015-May-28 01:34N 35°59' W 005°17'  
2015-May-24 18:34N 35°60' W 005°17'13 9.2
2015-May-24 17:11N 36°11' W 005°25'0 0.0
2015-May-23 13:15N 36°11' W 005°25'  
Track history (hours):
 
Tides and Currents Weather Stations Pressure Air Temp Water Temp Dewpoint Dewpoint Depression Visibility Wind Speed Wind Dir Waves Ship Positions

Monte

Last reported at 2015-May-29 09:33 UTC. Time now 2015-May-29 10:19 UTC.
Position N 38°18' W 009°44'.

Length 104 m; draft 6.6 m.

Type: Cargo ship. MMSI: 305777000.

Date/timePositionNaut miles runAvg speedWind from/ knotsBaromVisibWave heightAir tempDewpointWater temp
2015-May-29 09:33N 38°18' W 009°44'8 7.7
2015-May-29 08:33N 38°11' W 009°42'8 8.1
2015-May-29 07:33N 38°03' W 009°39'9 8.4
2015-May-29 06:32N 37°54' W 009°37'9 8.7
2015-May-29 05:32N 37°46' W 009°34'9 8.7
2015-May-29 04:33N 37°38' W 009°32'9 8.8
2015-May-29 03:33N 37°29' W 009°29'8 8.5
2015-May-29 02:34N 37°21' W 009°27'9 8.6
2015-May-29 01:33N 37°12' W 009°24'9 9.0
2015-May-29 00:34N 37°04' W 009°22'9 9.1
2015-May-28 23:33N 36°55' W 009°19'9 9.0
2015-May-28 22:33N 36°48' W 009°12'9 8.9
2015-May-28 21:33N 36°43' W 009°03'9 9.1
2015-May-28 20:34N 36°40' W 008°52'9 9.1
2015-May-28 19:32N 36°38' W 008°41'162 9.4
2015-May-28 02:22N 36°01' W 005°25'6 7.9
2015-May-28 01:34N 35°59' W 005°17'  
2015-May-24 18:34N 35°60' W 005°17'13 9.2
2015-May-24 17:11N 36°11' W 005°25'0 0.0
2015-May-23 13:15N 36°11' W 005°25'  

Dump ship's entire track history